Time;durP1;ratioP1;P1;durP2;ratioP2;P2;SDS_P1;SDS_P2;PMS_P1;PMS_P2;Temp;Humidity;BMP_temperature;BMP_pressure;BME280_temperature;BME280_humidity;BME280_pressure;Samples;Min_cycle;Max_cycle;Signal;HPM_P1;HPM_P2
2022/01/20 00:03:31;;;;;;;94.32;54.30;;;;;;;;;;10437622;27;20067;-55
2022/01/20 00:08:38;;;;;;;20.25;12.95;;;;;;;;;;10442451;27;20058;-53
2022/01/20 00:29:24;;;;;;;37.75;21.10;;;;;;;;;;10440096;27;20071;-55
2022/01/20 00:34:32;;;;;;;28.83;16.33;;;;;;;;;;10439384;27;20525;-54
2022/01/20 00:39:31;;;;;;;27.33;15.88;;;;;;;;;;10419649;27;20574;-53
2022/01/20 00:44:30;;;;;;;31.90;17.13;;;;;;;;;;10442674;27;20059;-51
2022/01/20 00:49:29;;;;;;;37.13;22.13;;;;;;;;;;10437885;27;20067;-51
2022/01/20 00:54:28;;;;;;;40.17;20.27;;;;;;;;;;10418298;27;20047;-51
2022/01/20 00:59:28;;;;;;;26.20;15.63;;;;;;;;;;10437630;27;20063;-52
2022/01/20 01:04:27;;;;;;;25.67;14.02;;;;;;;;;;10436820;27;20530;-49
2022/01/20 01:09:26;;;;;;;24.65;15.52;;;;;;;;;;10421843;27;20089;-50
2022/01/20 01:14:24;;;;;;;16.45;10.45;;;;;;;;;;10438285;27;20067;-49
2022/01/20 01:24:41;;;;;;;15.32;8.48;;;;;;;;;;10420847;27;20043;-51
2022/01/20 01:29:59;;;;;;;16.20;8.85;;;;;;;;;;10434893;27;20476;-48
2022/01/20 01:35:00;;;;;;;17.48;9.45;;;;;;;;;;10465603;27;20511;-50
2022/01/20 01:40:00;;;;;;;17.30;9.45;;;;;;;;;;10424471;27;20051;-52
2022/01/20 01:45:08;;;;;;;17.17;8.50;;;;;;;;;;10426955;27;20043;-50
2022/01/20 01:50:07;;;;;;;11.02;7.70;;;;;;;;;;10426358;27;20506;-54
2022/01/20 01:55:08;;;;;;;11.55;7.70;;;;;;;;;;10426630;27;20085;-51
2022/01/20 02:00:11;;;;;;;12.55;7.68;;;;;;;;;;10423217;27;20078;-54
2022/01/20 02:05:15;;;;;;;;;;;;;;;;;;10426357;27;20095;-54
2022/01/20 02:21:09;;;;;;;12.25;7.82;;;;;;;;;;10423884;27;20134;-54
2022/01/20 02:26:09;;;;;;;11.45;7.22;;;;;;;;;;10422161;27;20086;-54
2022/01/20 02:31:07;;;;;;;18.38;9.52;;;;;;;;;;10442499;27;20067;-49
2022/01/20 02:36:10;;;;;;;13.48;8.70;;;;;;;;;;10427322;27;20305;-53
2022/01/20 02:46:26;;;;;;;12.65;8.50;;;;;;;;;;10437502;27;20043;-51
2022/01/20 02:51:25;;;;;;;14.45;8.02;;;;;;;;;;10421086;27;20200;-50
2022/01/20 02:56:28;;;;;;;18.92;11.40;;;;;;;;;;10422931;27;20456;-55
2022/01/20 03:01:26;;;;;;;19.25;10.75;;;;;;;;;;10442032;27;20530;-54
2022/01/20 03:06:25;;;;;;;14.85;7.53;;;;;;;;;;10432869;27;20043;-52
2022/01/20 03:11:23;;;;;;;16.65;9.98;;;;;;;;;;10430980;27;20075;-55
2022/01/20 03:16:23;;;;;;;19.65;11.27;;;;;;;;;;10442019;27;20074;-54
2022/01/20 03:21:21;;;;;;;11.85;7.78;;;;;;;;;;10426066;27;20046;-52
2022/01/20 03:26:20;;;;;;;10.13;7.72;;;;;;;;;;10420692;27;20078;-56
2022/01/20 03:31:18;;;;;;;10.48;7.22;;;;;;;;;;10420299;27;20082;-55
2022/01/20 03:36:19;;;;;;;17.48;8.95;;;;;;;;;;10419763;27;20051;-49
2022/01/20 03:41:17;;;;;;;11.32;7.68;;;;;;;;;;10443289;27;20101;-51
2022/01/20 03:46:17;;;;;;;11.38;6.90;;;;;;;;;;10424416;27;20519;-55
2022/01/20 03:51:15;;;;;;;10.18;6.85;;;;;;;;;;10423816;27;20075;-53
2022/01/20 03:56:15;;;;;;;12.52;7.43;;;;;;;;;;10424056;27;20047;-53
2022/01/20 04:01:33;;;;;;;12.70;7.82;;;;;;;;;;10442188;27;20082;-54
2022/01/20 04:06:58;;;;;;;15.55;8.45;;;;;;;;;;10408785;27;20085;-54
2022/01/20 04:11:57;;;;;;;14.77;8.88;;;;;;;;;;10423766;27;20047;-54
2022/01/20 04:17:03;;;;;;;12.10;7.40;;;;;;;;;;10442097;27;20069;-51
2022/01/20 04:22:05;;;;;;;10.90;6.88;;;;;;;;;;10435741;27;20059;-49
2022/01/20 04:27:05;;;;;;;12.25;8.35;;;;;;;;;;10417314;27;20078;-53
2022/01/20 04:32:06;;;;;;;14.52;7.65;;;;;;;;;;10417478;27;20090;-50
2022/01/20 04:37:06;;;;;;;16.67;8.10;;;;;;;;;;10442724;27;20135;-53
2022/01/20 04:42:06;;;;;;;12.68;6.72;;;;;;;;;;10430763;27;20081;-54
2022/01/20 04:47:14;;;;;;;11.70;6.82;;;;;;;;;;10474885;27;20065;-51
2022/01/20 04:57:31;;;;;;;15.95;6.60;;;;;;;;;;10448440;27;20502;-53
2022/01/20 05:02:29;;;;;;;11.13;7.82;;;;;;;;;;10456231;27;20081;-53
2022/01/20 05:07:30;;;;;;;109.65;59.63;;;;;;;;;;10438586;27;20475;-51
2022/01/20 05:12:39;;;;;;;130.35;66.80;;;;;;;;;;10448530;27;20078;-56
2022/01/20 05:17:39;;;;;;;115.45;59.60;;;;;;;;;;10426974;27;20122;-56
2022/01/20 05:22:38;;;;;;;92.97;47.75;;;;;;;;;;10448514;27;20535;-54
2022/01/20 05:27:39;;;;;;;74.75;40.70;;;;;;;;;;10466172;27;20084;-51
2022/01/20 05:32:39;;;;;;;51.63;32.63;;;;;;;;;;10432831;27;20078;-55
2022/01/20 05:37:37;;;;;;;37.92;25.88;;;;;;;;;;10445275;27;20070;-51
2022/01/20 05:42:37;;;;;;;43.60;25.50;;;;;;;;;;10462793;27;20538;-54
2022/01/20 05:47:44;;;;;;;19.98;13.13;;;;;;;;;;10436239;27;20043;-51
2022/01/20 05:52:47;;;;;;;35.85;18.52;;;;;;;;;;10454932;27;20118;-54
2022/01/20 05:57:46;;;;;;;24.88;15.32;;;;;;;;;;10436093;27;20046;-55
2022/01/20 06:08:03;;;;;;;75.88;41.30;;;;;;;;;;10456506;27;20074;-52
2022/01/20 06:13:02;;;;;;;55.22;33.83;;;;;;;;;;10444725;27;20074;-51
2022/01/20 06:18:02;;;;;;;65.70;35.33;;;;;;;;;;10436999;27;20043;-54
2022/01/20 06:23:00;;;;;;;51.00;33.47;;;;;;;;;;10450122;27;20067;-55
2022/01/20 06:28:02;;;;;;;55.42;36.08;;;;;;;;;;10455911;27;20046;-50
2022/01/20 06:33:03;;;;;;;92.38;54.13;;;;;;;;;;10475174;27;20066;-52
2022/01/20 06:38:08;;;;;;;53.22;36.33;;;;;;;;;;10421513;27;20426;-53
2022/01/20 06:43:07;;;;;;;50.88;31.05;;;;;;;;;;10437537;27;20070;-51
2022/01/20 06:48:07;;;;;;;71.63;41.75;;;;;;;;;;10461268;27;20049;-55
2022/01/20 06:53:13;;;;;;;88.07;54.60;;;;;;;;;;10438291;27;20078;-54
2022/01/20 06:58:11;;;;;;;122.50;75.05;;;;;;;;;;10415673;27;20476;-53
2022/01/20 07:03:11;;;;;;;81.38;52.60;;;;;;;;;;10422550;27;20071;-53
2022/01/20 07:08:10;;;;;;;112.25;64.65;;;;;;;;;;10418345;27;20078;-52
2022/01/20 07:13:11;;;;;;;76.15;50.17;;;;;;;;;;10419939;27;20081;-55
2022/01/20 07:18:11;;;;;;;100.40;57.38;;;;;;;;;;10426957;27;20063;-54
2022/01/20 07:23:10;;;;;;;28.10;21.25;;;;;;;;;;10446971;27;20090;-53
2022/01/20 07:28:20;;;;;;;65.75;36.25;;;;;;;;;;10444397;27;20047;-53
2022/01/20 07:33:21;;;;;;;29.38;19.77;;;;;;;;;;10419623;27;20127;-55
2022/01/20 07:38:24;;;;;;;56.40;28.90;;;;;;;;;;10421213;27;20555;-54
2022/01/20 07:43:24;;;;;;;85.03;45.28;;;;;;;;;;10444323;27;20085;-55
2022/01/20 07:48:27;;;;;;;17.75;13.57;;;;;;;;;;10436337;27;20456;-49
2022/01/20 07:53:37;;;;;;;36.92;23.27;;;;;;;;;;10420054;27;20501;-54
2022/01/20 07:58:37;;;;;;;71.57;41.22;;;;;;;;;;10417280;27;20055;-53
2022/01/20 08:03:37;;;;;;;66.00;33.88;;;;;;;;;;10435087;27;20090;-55
2022/01/20 08:08:41;;;;;;;90.50;45.42;;;;;;;;;;10421615;27;20489;-55
2022/01/20 08:13:58;;;;;;;83.57;46.70;;;;;;;;;;10441600;27;20087;-49
2022/01/20 08:18:58;;;;;;;36.88;21.88;;;;;;;;;;10419441;27;20039;-53
2022/01/20 08:23:56;;;;;;;33.40;20.02;;;;;;;;;;10437368;27;20054;-52
2022/01/20 08:28:54;;;;;;;25.42;16.52;;;;;;;;;;10418898;27;20074;-54
2022/01/20 08:33:53;;;;;;;27.35;19.15;;;;;;;;;;10420137;27;20577;-55
2022/01/20 08:39:04;;;;;;;39.33;21.67;;;;;;;;;;10395655;27;20070;-51
2022/01/20 08:44:02;;;;;;;46.58;25.67;;;;;;;;;;10394999;27;20436;-51
2022/01/20 08:49:01;;;;;;;32.83;19.25;;;;;;;;;;10390264;27;20488;-53
2022/01/20 08:54:11;;;;;;;21.23;15.50;;;;;;;;;;10390439;28;20098;-54
2022/01/20 08:59:10;;;;;;;20.63;15.13;;;;;;;;;;10396962;28;20079;-53
2022/01/20 09:04:09;;;;;;;19.65;13.13;;;;;;;;;;10390048;28;20066;-53
2022/01/20 09:09:23;;;;;;;32.92;16.48;;;;;;;;;;10388982;28;20059;-53
2022/01/20 09:19:37;;;;;;;;;;;;;;;;;;10403640;28;20044;-53
2022/01/20 09:24:37;;;;;;;17.02;10.45;;;;;;;;;;10408818;28;19939;-55
2022/01/20 09:29:37;;;;;;;19.70;12.07;;;;;;;;;;10393089;28;20051;-55
2022/01/20 09:34:37;;;;;;;25.23;14.90;;;;;;;;;;10388475;28;20090;-53
2022/01/20 09:39:40;;;;;;;44.03;24.55;;;;;;;;;;10388498;28;20107;-57
2022/01/20 09:44:52;;;;;;;25.55;14.05;;;;;;;;;;10392234;28;20052;-54
2022/01/20 09:49:53;;;;;;;25.63;16.95;;;;;;;;;;10389062;28;20077;-54
2022/01/20 09:55:02;;;;;;;24.27;12.10;;;;;;;;;;10387873;28;20477;-51
2022/01/20 10:00:03;;;;;;;14.80;9.10;;;;;;;;;;10399034;27;20047;-54
2022/01/20 10:05:12;;;;;;;15.82;9.45;;;;;;;;;;10407547;27;20426;-55
2022/01/20 10:10:17;;;;;;;15.05;10.73;;;;;;;;;;10403071;27;20067;-54
2022/01/20 10:15:57;;;;;;;19.95;9.52;;;;;;;;;;10430661;27;20082;-55
2022/01/20 10:21:16;;;;;;;12.20;7.32;;;;;;;;;;10436906;27;20292;-50
2022/01/20 10:26:36;;;;;;;15.02;10.13;;;;;;;;;;10405076;27;20094;-55
2022/01/20 10:31:37;;;;;;;20.98;11.68;;;;;;;;;;10404537;27;20055;-53
2022/01/20 10:36:50;;;;;;;11.80;6.53;;;;;;;;;;10440283;27;20057;-51
2022/01/20 10:42:05;;;;;;;11.27;6.50;;;;;;;;;;10451085;27;20149;-54
2022/01/20 10:47:04;;;;;;;13.98;7.40;;;;;;;;;;10421979;27;20055;-51
2022/01/20 10:52:07;;;;;;;10.85;6.30;;;;;;;;;;10425869;27;20050;-56
2022/01/20 10:57:08;;;;;;;14.20;8.05;;;;;;;;;;10440522;27;20074;-51
2022/01/20 11:02:08;;;;;;;15.77;7.90;;;;;;;;;;10422058;27;20047;-55
2022/01/20 11:07:09;;;;;;;24.10;10.00;;;;;;;;;;10421181;27;20066;-55
2022/01/20 11:12:19;;;;;;;17.85;8.23;;;;;;;;;;10423636;27;20086;-57
2022/01/20 11:17:30;;;;;;;14.50;8.88;;;;;;;;;;10443250;27;20034;-54
2022/01/20 11:22:28;;;;;;;16.23;10.70;;;;;;;;;;10444501;27;20066;-56
2022/01/20 11:28:04;;;;;;;13.68;6.72;;;;;;;;;;10425673;27;20055;-54
2022/01/20 11:33:35;;;;;;;8.15;6.65;;;;;;;;;;10444759;27;20089;-54
2022/01/20 11:38:38;;;;;;;27.52;16.52;;;;;;;;;;10479836;27;20079;-49
2022/01/20 11:43:39;;;;;;;20.48;12.10;;;;;;;;;;10473632;27;20174;-51
2022/01/20 11:48:37;;;;;;;33.65;15.68;;;;;;;;;;10443896;27;20073;-50
2022/01/20 11:53:41;;;;;;;15.88;7.28;;;;;;;;;;10442225;27;20482;-51
2022/01/20 11:58:49;;;;;;;15.40;10.13;;;;;;;;;;10442134;27;20082;-55
2022/01/20 12:03:50;;;;;;;7.97;6.18;;;;;;;;;;10442847;27;20096;-56
2022/01/20 12:08:53;;;;;;;10.98;7.50;;;;;;;;;;10424196;27;20047;-55
2022/01/20 12:13:54;;;;;;;11.75;8.70;;;;;;;;;;10443368;27;20067;-53
2022/01/20 12:18:54;;;;;;;12.45;8.60;;;;;;;;;;10442767;27;20089;-54
2022/01/20 12:23:53;;;;;;;16.00;11.13;;;;;;;;;;10443205;27;20047;-51
2022/01/20 12:29:01;;;;;;;15.40;10.98;;;;;;;;;;10443053;27;20071;-55
2022/01/20 12:34:00;;;;;;;13.70;7.20;;;;;;;;;;10435970;27;20078;-49
2022/01/20 12:38:58;;;;;;;20.63;11.32;;;;;;;;;;10437243;27;20074;-53
2022/01/20 12:43:59;;;;;;;10.75;6.05;;;;;;;;;;10449196;27;20145;-54
2022/01/20 12:49:00;;;;;;;12.52;6.53;;;;;;;;;;10468992;27;20171;-53
2022/01/20 12:54:04;;;;;;;8.57;5.22;;;;;;;;;;10436121;27;20079;-54
2022/01/20 12:59:03;;;;;;;13.53;7.97;;;;;;;;;;10468758;27;20077;-55
2022/01/20 13:04:21;;;;;;;13.57;8.65;;;;;;;;;;10445309;27;20335;-56
2022/01/20 13:09:21;;;;;;;14.73;7.22;;;;;;;;;;10459840;27;20067;-54
2022/01/20 13:14:22;;;;;;;15.43;9.40;;;;;;;;;;10442545;27;20127;-57
2022/01/20 13:19:33;;;;;;;18.23;9.52;;;;;;;;;;10442173;27;20048;-52
2022/01/20 13:24:32;;;;;;;17.08;10.35;;;;;;;;;;10437708;27;20066;-57
2022/01/20 13:29:39;;;;;;;13.77;8.55;;;;;;;;;;10435870;27;20363;-57
2022/01/20 13:34:40;;;;;;;11.52;7.35;;;;;;;;;;10444445;27;20515;-56
2022/01/20 13:39:40;;;;;;;7.47;5.63;;;;;;;;;;10407033;27;20370;-53
2022/01/20 13:49:58;;;;;;;10.00;6.07;;;;;;;;;;10404018;27;20085;-55
2022/01/20 13:54:57;;;;;;;9.32;5.95;;;;;;;;;;10406388;27;20070;-53
2022/01/20 14:00:10;;;;;;;11.20;6.85;;;;;;;;;;10405912;27;20070;-56
2022/01/20 14:05:10;;;;;;;12.38;7.63;;;;;;;;;;10403362;27;20086;-55
2022/01/20 14:10:09;;;;;;;13.70;7.35;;;;;;;;;;10405001;27;20495;-55
2022/01/20 14:15:07;;;;;;;9.65;6.38;;;;;;;;;;10404871;27;20090;-54
2022/01/20 14:20:09;;;;;;;16.73;8.80;;;;;;;;;;10402684;27;20082;-57
2022/01/20 14:25:10;;;;;;;10.63;6.57;;;;;;;;;;10402618;27;20079;-54
2022/01/20 14:30:10;;;;;;;9.60;6.30;;;;;;;;;;10404541;27;20075;-56
2022/01/20 14:35:08;;;;;;;13.07;8.77;;;;;;;;;;10398269;28;20083;-56
2022/01/20 14:40:08;;;;;;;14.52;9.77;;;;;;;;;;10359635;28;20071;-55
2022/01/20 14:45:09;;;;;;;12.88;7.80;;;;;;;;;;10365713;28;20047;-54
2022/01/20 14:50:08;;;;;;;19.90;14.88;;;;;;;;;;10361852;28;20072;-53
2022/01/20 14:55:07;;;;;;;42.78;26.92;;;;;;;;;;10380226;28;20083;-53
2022/01/20 15:00:06;;;;;;;21.00;12.38;;;;;;;;;;10362031;28;20141;-53
2022/01/20 15:05:09;;;;;;;17.27;12.02;;;;;;;;;;10359543;28;20514;-52
2022/01/20 15:10:08;;;;;;;35.53;23.77;;;;;;;;;;10361631;28;20506;-55
2022/01/20 15:15:07;;;;;;;22.27;15.77;;;;;;;;;;10355460;28;20478;-56
2022/01/20 15:20:11;;;;;;;16.40;11.23;;;;;;;;;;10358574;28;20071;-49
2022/01/20 15:25:10;;;;;;;17.77;12.88;;;;;;;;;;10356629;28;20347;-53
2022/01/20 15:30:09;;;;;;;19.45;13.18;;;;;;;;;;10356251;28;20040;-56
2022/01/20 15:35:13;;;;;;;28.10;15.57;;;;;;;;;;10355843;28;20394;-52
2022/01/20 15:40:12;;;;;;;71.45;39.83;;;;;;;;;;10355420;28;20083;-52
2022/01/20 15:45:10;;;;;;;28.95;16.55;;;;;;;;;;10355527;28;20063;-49
2022/01/20 15:50:10;;;;;;;64.75;32.40;;;;;;;;;;10356248;28;20060;-53
2022/01/20 15:55:11;;;;;;;57.00;33.88;;;;;;;;;;10356835;28;20123;-53
2022/01/20 16:00:10;;;;;;;35.90;23.48;;;;;;;;;;10355455;28;20079;-49
2022/01/20 16:05:09;;;;;;;50.78;27.00;;;;;;;;;;10355887;28;20083;-49
2022/01/20 16:10:07;;;;;;;55.15;33.97;;;;;;;;;;10355659;28;20474;-53
2022/01/20 16:15:08;;;;;;;71.35;36.47;;;;;;;;;;10354813;28;20086;-52
2022/01/20 16:20:07;;;;;;;55.85;31.25;;;;;;;;;;10359990;28;20501;-49
2022/01/20 16:25:07;;;;;;;132.98;59.38;;;;;;;;;;10354766;28;20075;-48
2022/01/20 16:30:06;;;;;;;24.20;12.90;;;;;;;;;;10354640;28;20064;-51
2022/01/20 16:35:07;;;;;;;67.00;33.63;;;;;;;;;;10358872;28;20657;-53
2022/01/20 16:40:06;;;;;;;40.53;21.05;;;;;;;;;;10395456;28;20075;-55
2022/01/20 16:45:06;;;;;;;25.23;14.27;;;;;;;;;;10395122;28;20079;-55
2022/01/20 16:50:06;;;;;;;41.22;22.60;;;;;;;;;;10395462;28;20425;-52
2022/01/20 16:55:05;;;;;;;73.57;34.83;;;;;;;;;;10399500;28;20083;-49
2022/01/20 17:00:04;;;;;;;40.92;21.52;;;;;;;;;;10398640;28;20115;-55
2022/01/20 17:05:03;;;;;;;65.65;31.13;;;;;;;;;;10397812;28;20094;-49
2022/01/20 17:10:03;;;;;;;107.55;50.05;;;;;;;;;;10403781;27;20064;-53
2022/01/20 17:15:04;;;;;;;67.90;38.65;;;;;;;;;;10403190;27;20078;-54
2022/01/20 17:20:03;;;;;;;37.30;25.55;;;;;;;;;;10420498;27;20338;-54
2022/01/20 17:25:01;;;;;;;34.50;23.58;;;;;;;;;;10408070;27;20485;-54
2022/01/20 17:30:01;;;;;;;23.67;15.48;;;;;;;;;;10403452;27;20086;-49
2022/01/20 17:34:59;;;;;;;22.02;14.98;;;;;;;;;;10402698;27;20079;-50
2022/01/20 17:39:57;;;;;;;29.17;17.25;;;;;;;;;;10406576;27;20052;-51
2022/01/20 17:44:55;;;;;;;26.70;16.80;;;;;;;;;;10407290;27;20505;-54
2022/01/20 17:49:55;;;;;;;17.98;11.32;;;;;;;;;;10406298;27;20081;-54
2022/01/20 17:54:53;;;;;;;21.52;11.93;;;;;;;;;;10405541;27;20079;-54
2022/01/20 17:59:52;;;;;;;25.58;15.27;;;;;;;;;;10406422;27;20075;-56
2022/01/20 18:04:50;;;;;;;24.50;13.77;;;;;;;;;;10405941;27;20082;-56
2022/01/20 18:09:50;;;;;;;22.52;14.55;;;;;;;;;;10405897;27;20067;-55
2022/01/20 18:14:48;;;;;;;28.80;16.90;;;;;;;;;;10398142;28;20067;-53
2022/01/20 18:19:48;;;;;;;16.60;11.05;;;;;;;;;;10404374;27;20063;-54
2022/01/20 18:24:46;;;;;;;26.98;17.88;;;;;;;;;;10405444;27;20524;-53
2022/01/20 18:29:46;;;;;;;19.95;12.88;;;;;;;;;;10400799;27;20492;-55
2022/01/20 18:34:46;;;;;;;28.33;18.00;;;;;;;;;;10399744;28;20071;-54
2022/01/20 18:39:45;;;;;;;19.25;13.00;;;;;;;;;;10398561;28;20681;-54
2022/01/20 18:44:43;;;;;;;22.10;15.30;;;;;;;;;;10430438;27;20093;-54
2022/01/20 18:49:43;;;;;;;22.45;13.75;;;;;;;;;;10438389;27;20303;-49
2022/01/20 18:54:41;;;;;;;24.20;16.27;;;;;;;;;;10430637;27;20058;-52
2022/01/20 18:59:39;;;;;;;18.13;10.95;;;;;;;;;;10420499;27;20075;-50
2022/01/20 19:04:38;;;;;;;26.42;16.23;;;;;;;;;;10399249;27;20047;-54
2022/01/20 19:09:38;;;;;;;14.80;10.68;;;;;;;;;;10398428;28;20547;-51
2022/01/20 19:14:37;;;;;;;24.30;14.52;;;;;;;;;;10398276;27;20101;-53
2022/01/20 19:19:35;;;;;;;57.80;34.13;;;;;;;;;;10399465;27;20078;-47
2022/01/20 19:24:38;;;;;;;61.72;32.67;;;;;;;;;;10400618;27;20071;-54
2022/01/20 19:29:37;;;;;;;17.15;12.75;;;;;;;;;;10402917;27;20067;-51
2022/01/20 19:34:35;;;;;;;16.83;11.93;;;;;;;;;;10402517;27;20461;-54
2022/01/20 19:39:34;;;;;;;44.85;28.42;;;;;;;;;;10404404;27;20079;-48
2022/01/20 19:44:33;;;;;;;34.58;22.15;;;;;;;;;;10402340;27;20067;-54
2022/01/20 19:49:31;;;;;;;27.73;19.92;;;;;;;;;;10399027;27;20097;-50
2022/01/20 19:54:30;;;;;;;22.00;15.30;;;;;;;;;;10396407;28;20067;-57
2022/01/20 19:59:28;;;;;;;23.75;17.10;;;;;;;;;;10402811;27;20071;-53
2022/01/20 20:04:28;;;;;;;24.17;16.05;;;;;;;;;;10402872;27;20074;-52
2022/01/20 20:09:26;;;;;;;26.60;17.58;;;;;;;;;;10398743;27;20421;-55
2022/01/20 20:14:25;;;;;;;21.30;15.02;;;;;;;;;;10402234;27;20088;-51
2022/01/20 20:19:23;;;;;;;18.58;12.65;;;;;;;;;;10401886;27;20067;-51
2022/01/20 20:24:25;;;;;;;21.00;13.60;;;;;;;;;;10401317;27;20122;-55
2022/01/20 20:29:24;;;;;;;21.65;13.82;;;;;;;;;;10401745;27;20476;-55
2022/01/20 20:34:22;;;;;;;18.25;13.93;;;;;;;;;;10398223;27;20089;-56
2022/01/20 20:39:21;;;;;;;17.67;12.00;;;;;;;;;;10400124;27;20083;-51
2022/01/20 20:44:21;;;;;;;23.42;17.13;;;;;;;;;;10398757;28;20067;-48
2022/01/20 20:49:21;;;;;;;29.90;21.20;;;;;;;;;;10400661;27;20078;-50
2022/01/20 20:54:20;;;;;;;16.23;12.02;;;;;;;;;;10399146;27;20066;-50
2022/01/20 20:59:19;;;;;;;18.38;12.50;;;;;;;;;;10402147;28;20086;-49
2022/01/20 21:04:20;;;;;;;25.38;15.57;;;;;;;;;;10414590;28;20467;-52
2022/01/20 21:09:31;;;;;;;18.15;12.43;;;;;;;;;;10418934;28;20071;-48
2022/01/20 21:14:29;;;;;;;14.20;9.88;;;;;;;;;;10398025;28;20040;-53
2022/01/20 21:19:29;;;;;;;12.57;10.90;;;;;;;;;;10395315;28;20102;-55
2022/01/20 21:24:27;;;;;;;14.75;11.68;;;;;;;;;;10394785;28;20071;-54
2022/01/20 21:29:26;;;;;;;16.58;12.82;;;;;;;;;;10399221;28;20472;-53
2022/01/20 21:34:24;;;;;;;10.65;8.15;;;;;;;;;;10403167;28;20461;-56
2022/01/20 21:39:23;;;;;;;19.85;14.05;;;;;;;;;;10418784;28;20075;-53
2022/01/20 21:44:22;;;;;;;18.45;11.82;;;;;;;;;;10412659;28;20100;-53
2022/01/20 21:49:21;;;;;;;10.63;6.30;;;;;;;;;;10414014;28;20059;-52
2022/01/20 21:54:37;;;;;;;10.52;7.10;;;;;;;;;;10427365;27;20342;-54
2022/01/20 21:59:36;;;;;;;10.45;7.30;;;;;;;;;;10410201;27;20125;-54
2022/01/20 22:04:34;;;;;;;24.50;18.70;;;;;;;;;;10424422;27;20074;-54
2022/01/20 22:09:34;;;;;;;21.38;14.63;;;;;;;;;;10430129;27;20063;-54
2022/01/20 22:14:34;;;;;;;41.28;24.27;;;;;;;;;;10415922;27;20078;-53
2022/01/20 22:19:32;;;;;;;28.58;16.90;;;;;;;;;;10415358;27;20078;-55
2022/01/20 22:24:32;;;;;;;26.73;16.02;;;;;;;;;;10408121;27;20528;-54
2022/01/20 22:29:30;;;;;;;22.52;13.95;;;;;;;;;;10401525;27;20477;-52
2022/01/20 22:34:30;;;;;;;13.95;9.00;;;;;;;;;;10401378;27;20075;-53
2022/01/20 22:39:28;;;;;;;10.45;7.68;;;;;;;;;;10405647;27;20079;-55
2022/01/20 22:44:27;;;;;;;16.08;11.75;;;;;;;;;;10420809;27;20078;-53
2022/01/20 22:49:25;;;;;;;17.38;9.82;;;;;;;;;;10403343;27;20155;-53
2022/01/20 22:54:24;;;;;;;13.73;8.73;;;;;;;;;;10404788;27;20067;-53
2022/01/20 22:59:23;;;;;;;14.55;8.23;;;;;;;;;;10403850;27;20481;-51
2022/01/20 23:04:26;;;;;;;19.13;10.00;;;;;;;;;;10402221;27;20067;-56
2022/01/20 23:09:26;;;;;;;10.55;7.63;;;;;;;;;;10380940;27;20054;-53
2022/01/20 23:14:25;;;;;;;11.85;8.13;;;;;;;;;;10399013;28;20067;-52
2022/01/20 23:24:44;;;;;;;18.90;12.25;;;;;;;;;;10397442;27;20075;-53
2022/01/20 23:29:43;;;;;;;14.27;9.05;;;;;;;;;;10359775;28;20094;-53
2022/01/20 23:34:41;;;;;;;12.00;8.05;;;;;;;;;;10358351;28;20525;-51
2022/01/20 23:39:41;;;;;;;10.68;7.00;;;;;;;;;;10456210;27;20089;-52
2022/01/20 23:44:53;;;;;;;11.40;7.28;;;;;;;;;;10439242;27;20066;-51
2022/01/20 23:49:51;;;;;;;8.77;6.72;;;;;;;;;;10473641;27;20066;-52
2022/01/20 23:54:51;;;;;;;9.02;7.63;;;;;;;;;;10463993;27;20062;-51
2022/01/20 23:59:49;;;;;;;9.60;6.55;;;;;;;;;;10440917;27;20077;-53
